Terminal Aerodrome Forecast
Issued by NWS

Home | Current Version | Previous Version | Text Only | Print | Product List | Glossary On
Versions: 1 2 3 4 5 6 7 8 9 10 11 12 13 14 15 16 17 18 19 20 21 22 23 24 25 26 27 28 29 30 31 32
000
FTUS41 KBOX 272322
TAFBED
TAF
KBED 272322Z 2800/2824 20006KT P6SM VCSH OVC035
     FM280200 22005KT 5SM BR BKN050
     FM280700 VRB03KT 2SM BR SCT008 BKN120
     FM281300 28004KT P6SM SCT250
     FM281700 34004KT P6SM SCT250
     FM281800 35004KT P6SM BKN070
     FM282000 07005KT P6SM BKN050=

USA.gov is the U.S. government's official web portal to all federal, state and local government web resources and services.